createdAt,value
2019-05-23T00:00:12.159Z,0.00
2019-05-23T00:01:12.170Z,0.00
2019-05-23T00:02:12.092Z,0.00
2019-05-23T00:03:12.032Z,0.00
2019-05-23T00:04:12.056Z,0.00
2019-05-23T00:05:11.973Z,0.00
2019-05-23T00:06:11.910Z,0.00
2019-05-23T00:07:11.883Z,0.00
2019-05-23T00:08:11.835Z,0.00
2019-05-23T00:09:11.822Z,0.00
2019-05-23T00:10:11.774Z,0.00
2019-05-23T00:11:11.733Z,0.00
2019-05-23T00:12:11.681Z,0.00
2019-05-23T00:13:11.641Z,0.00
2019-05-23T00:14:11.582Z,0.00
2019-05-23T00:15:11.570Z,0.00
2019-05-23T00:16:11.526Z,0.00
2019-05-23T00:17:11.552Z,0.00
2019-05-23T00:18:11.453Z,0.00
2019-05-23T00:19:11.385Z,0.00
2019-05-23T00:20:11.372Z,0.00
2019-05-23T00:21:11.330Z,0.00
2019-05-23T00:22:11.273Z,0.00
2019-05-23T00:23:11.241Z,0.00
2019-05-23T00:24:11.199Z,0.00
2019-05-23T00:25:11.177Z,0.00
2019-05-23T00:26:11.117Z,0.00
2019-05-23T00:27:11.074Z,0.00
2019-05-23T00:28:11.033Z,0.00
2019-05-23T00:29:11.066Z,0.00
2019-05-23T00:30:10.936Z,0.00
2019-05-23T00:31:10.939Z,0.00
2019-05-23T00:32:10.878Z,0.00
2019-05-23T00:33:10.828Z,0.00
2019-05-23T00:34:10.794Z,0.00
2019-05-23T00:35:10.744Z,0.00
2019-05-23T00:36:10.733Z,0.00
2019-05-23T00:37:10.682Z,0.00
2019-05-23T00:38:10.633Z,0.00
2019-05-23T00:39:10.646Z,0.00
2019-05-23T00:40:10.543Z,0.00
2019-05-23T00:41:10.525Z,0.00
2019-05-23T00:42:10.489Z,0.00
2019-05-23T00:43:10.424Z,0.00
2019-05-23T00:44:10.459Z,0.00
2019-05-23T00:45:10.444Z,0.00
2019-05-23T00:46:10.334Z,0.00
2019-05-23T00:47:10.283Z,0.00
2019-05-23T00:48:10.237Z,0.00
2019-05-23T00:49:10.178Z,0.00
2019-05-23T00:50:10.152Z,0.00
2019-05-23T00:51:10.107Z,0.00
2019-05-23T00:52:10.055Z,0.00
2019-05-23T00:53:10.017Z,0.00
2019-05-23T00:54:09.992Z,0.00
2019-05-23T00:55:09.945Z,0.00
2019-05-23T00:56:09.907Z,0.00
2019-05-23T00:57:09.850Z,0.00
2019-05-23T00:58:09.824Z,0.00
2019-05-23T00:59:24.471Z,0.00
2019-05-23T01:00:09.743Z,0.00
2019-05-23T01:01:09.695Z,0.00
2019-05-23T01:02:09.657Z,0.00
2019-05-23T01:03:09.610Z,0.00
2019-05-23T01:04:09.602Z,0.00
2019-05-23T01:05:09.555Z,0.00
2019-05-23T01:06:09.492Z,0.00
2019-05-23T01:07:09.458Z,0.00
2019-05-23T01:08:09.417Z,0.00
2019-05-23T01:09:09.377Z,0.00
2019-05-23T01:10:09.324Z,0.00
2019-05-23T01:11:09.289Z,0.00
2019-05-23T01:12:09.251Z,0.00
2019-05-23T01:13:09.221Z,0.00
2019-05-23T01:14:09.169Z,0.00
2019-05-23T01:15:09.161Z,0.00
2019-05-23T01:16:09.088Z,0.00
2019-05-23T01:17:09.042Z,0.00
2019-05-23T01:18:09.027Z,0.00
2019-05-23T01:19:08.975Z,0.00
2019-05-23T01:20:08.928Z,0.00
2019-05-23T01:21:08.882Z,0.00
2019-05-23T01:22:08.864Z,0.00
2019-05-23T01:23:08.806Z,0.00
2019-05-23T01:24:08.795Z,0.00
2019-05-23T01:25:08.728Z,0.00
2019-05-23T01:26:08.679Z,0.00
2019-05-23T01:27:08.653Z,0.00
2019-05-23T01:28:08.614Z,0.00
2019-05-23T01:29:08.569Z,0.00
2019-05-23T01:30:08.527Z,0.00
2019-05-23T01:31:08.485Z,0.00
2019-05-23T01:32:08.454Z,0.00
2019-05-23T01:33:08.419Z,0.00
2019-05-23T01:34:08.368Z,0.00
2019-05-23T01:35:08.321Z,0.00
2019-05-23T01:36:08.290Z,0.00
2019-05-23T01:37:08.277Z,0.00
2019-05-23T01:38:08.207Z,0.00
2019-05-23T01:39:08.165Z,0.00
2019-05-23T01:40:08.153Z,0.00
2019-05-23T01:41:08.076Z,0.00
2019-05-23T01:42:08.047Z,0.00
2019-05-23T01:43:08.010Z,0.00
2019-05-23T01:44:07.967Z,0.00
2019-05-23T01:45:07.926Z,0.00
2019-05-23T01:46:07.883Z,0.00
2019-05-23T01:47:07.839Z,0.00
2019-05-23T01:48:07.814Z,0.00
2019-05-23T01:49:07.760Z,0.00
2019-05-23T01:50:07.738Z,0.00
2019-05-23T01:51:07.695Z,0.00
2019-05-23T01:52:07.645Z,0.00
2019-05-23T01:53:07.602Z,0.00
2019-05-23T01:54:07.570Z,0.00
2019-05-23T01:55:07.546Z,0.00
2019-05-23T01:56:07.481Z,0.00
2019-05-23T01:57:07.457Z,0.00
2019-05-23T01:58:07.415Z,0.00
2019-05-23T01:59:07.371Z,0.00
2019-05-23T02:00:10.509Z,0.00
2019-05-23T02:01:07.275Z,0.00
2019-05-23T02:02:07.262Z,0.00
2019-05-23T02:03:07.209Z,0.00
2019-05-23T02:04:07.169Z,0.00
2019-05-23T02:05:07.131Z,0.00
2019-05-23T02:06:07.089Z,0.00
2019-05-23T02:07:07.043Z,0.00
2019-05-23T02:08:07.012Z,0.00
2019-05-23T02:09:06.962Z,0.00
2019-05-23T02:10:06.925Z,0.00
2019-05-23T02:11:06.882Z,0.00
2019-05-23T02:12:06.849Z,0.00
2019-05-23T02:13:06.813Z,0.00
2019-05-23T02:14:06.764Z,0.00
2019-05-23T02:15:06.734Z,0.00
2019-05-23T02:16:06.703Z,0.00
2019-05-23T02:17:06.644Z,0.00
2019-05-23T02:18:06.619Z,0.00
2019-05-23T02:19:06.565Z,0.00
2019-05-23T02:20:06.533Z,0.00
2019-05-23T02:21:06.493Z,0.00
2019-05-23T02:22:06.440Z,0.00
2019-05-23T02:23:06.402Z,0.00
2019-05-23T02:24:06.373Z,0.00
2019-05-23T02:25:06.328Z,0.00
2019-05-23T02:26:06.293Z,0.00
2019-05-23T02:27:06.278Z,0.00
2019-05-23T02:28:06.201Z,0.00
2019-05-23T02:29:06.160Z,4.00
2019-05-23T02:30:06.125Z,4.00
2019-05-23T02:31:06.086Z,4.00
2019-05-23T02:32:06.067Z,4.00
2019-05-23T02:33:06.000Z,0.00
2019-05-23T02:34:05.970Z,4.00
2019-05-23T02:35:05.949Z,4.00
2019-05-23T02:36:05.900Z,8.00
2019-05-23T02:37:05.893Z,4.00
2019-05-23T02:38:05.810Z,8.00
2019-05-23T02:39:05.765Z,8.00
2019-05-23T02:40:05.725Z,8.00
2019-05-23T02:41:05.683Z,8.00
2019-05-23T02:42:05.641Z,12.00
2019-05-23T02:43:05.603Z,12.00
2019-05-23T02:44:05.568Z,12.00
2019-05-23T02:45:05.532Z,16.00
2019-05-23T02:46:05.502Z,20.00
2019-05-23T02:47:05.448Z,20.00
2019-05-23T02:48:05.401Z,20.00
2019-05-23T02:49:05.370Z,24.00
2019-05-23T02:50:05.360Z,28.00
2019-05-23T02:51:05.286Z,32.00
2019-05-23T02:52:05.238Z,36.00
2019-05-23T02:53:05.215Z,44.00
2019-05-23T02:54:05.160Z,48.00
2019-05-23T02:55:05.120Z,56.00
2019-05-23T02:56:05.086Z,64.00
2019-05-23T02:57:05.109Z,68.00
2019-05-23T02:58:05.001Z,80.00
2019-05-23T02:59:04.959Z,88.00
2019-05-23T03:00:04.927Z,96.00
2019-05-23T03:01:04.881Z,112.00
2019-05-23T03:02:04.849Z,124.00
2019-05-23T03:03:04.810Z,144.00
2019-05-23T03:04:04.783Z,160.00
2019-05-23T03:05:04.720Z,180.00
2019-05-23T03:06:04.685Z,212.00
2019-05-23T03:07:04.646Z,240.00
2019-05-23T03:08:04.596Z,276.00
2019-05-23T03:09:04.568Z,312.00
2019-05-23T03:10:04.513Z,348.00
2019-05-23T03:11:04.604Z,388.00
2019-05-23T03:12:04.434Z,428.00
2019-05-23T03:13:04.401Z,472.00
2019-05-23T03:14:04.356Z,512.00
2019-05-23T03:15:04.355Z,552.00
2019-05-23T03:16:04.295Z,588.00
2019-05-23T03:17:04.237Z,628.00
2019-05-23T03:18:04.205Z,664.00
2019-05-23T03:19:04.166Z,704.00
2019-05-23T03:20:04.130Z,752.00
2019-05-23T03:21:04.087Z,804.00
2019-05-23T03:22:04.070Z,860.00
2019-05-23T03:23:04.004Z,928.00
2019-05-23T03:24:03.970Z,984.00
2019-05-23T03:25:03.946Z,1052.00
2019-05-23T03:26:03.899Z,1124.00
2019-05-23T03:27:03.833Z,1196.00
2019-05-23T03:28:03.809Z,1272.00
2019-05-23T03:29:03.773Z,1356.00
2019-05-23T03:30:03.718Z,1440.00
2019-05-23T03:31:27.103Z,1528.00
2019-05-23T03:32:03.667Z,1596.00
2019-05-23T03:33:03.598Z,1648.00
2019-05-23T03:34:03.565Z,1728.00
2019-05-23T03:35:03.511Z,1840.00
2019-05-23T03:36:03.493Z,1968.00
2019-05-23T03:37:03.457Z,2084.00
2019-05-23T03:38:03.431Z,2188.00
2019-05-23T03:39:03.359Z,2280.00
2019-05-23T03:40:03.366Z,2384.00
2019-05-23T03:41:03.348Z,2496.00
2019-05-23T03:42:03.289Z,2600.00
2019-05-23T03:43:03.200Z,2688.00
2019-05-23T03:44:03.175Z,2804.00
2019-05-23T03:45:03.178Z,2920.00
2019-05-23T03:46:03.073Z,3020.00
2019-05-23T03:47:03.031Z,3128.00
2019-05-23T03:48:03.042Z,3228.00
2019-05-23T03:49:02.960Z,3328.00
2019-05-23T03:50:02.938Z,3436.00
2019-05-23T03:51:02.869Z,3512.00
2019-05-23T03:52:02.830Z,3612.00
2019-05-23T03:53:02.786Z,3684.00
2019-05-23T03:54:02.777Z,3780.00
2019-05-23T03:55:02.713Z,3868.00
2019-05-23T03:56:02.675Z,3960.00
2019-05-23T03:57:02.633Z,4092.00
2019-05-23T03:58:02.589Z,4236.00
2019-05-23T03:59:02.566Z,4380.00
2019-05-23T04:00:02.505Z,4552.00
2019-05-23T04:01:02.477Z,4800.00
2019-05-23T04:02:02.429Z,5140.00
2019-05-23T04:03:02.406Z,5456.00
2019-05-23T04:04:02.484Z,5636.00
2019-05-23T04:05:02.339Z,6140.00
2019-05-23T04:06:02.385Z,6636.00
2019-05-23T04:07:02.303Z,6888.00
2019-05-23T04:08:02.194Z,7016.00
2019-05-23T04:09:02.151Z,7116.00
2019-05-23T04:10:02.119Z,7344.00
2019-05-23T04:11:02.084Z,7548.00
2019-05-23T04:12:02.063Z,7536.00
2019-05-23T04:13:01.985Z,7588.00
2019-05-23T04:14:01.952Z,7592.00
2019-05-23T04:15:01.920Z,7936.00
2019-05-23T04:16:01.878Z,8272.00
2019-05-23T04:17:01.832Z,8356.00
2019-05-23T04:18:01.824Z,8044.00
2019-05-23T04:19:01.762Z,7684.00
2019-05-23T04:20:01.709Z,7704.00
2019-05-23T04:21:01.700Z,7828.00
2019-05-23T04:22:01.728Z,7720.00
2019-05-23T04:23:01.586Z,7788.00
2019-05-23T04:24:01.555Z,7928.00
2019-05-23T04:25:02.366Z,8276.00
2019-05-23T04:26:01.481Z,8784.00
2019-05-23T04:27:01.478Z,9040.00
2019-05-23T04:28:01.408Z,8756.00
2019-05-23T04:29:01.350Z,8912.00
2019-05-23T04:30:01.363Z,9332.00
2019-05-23T04:31:01.281Z,10340.00
2019-05-23T04:32:08.059Z,11928.00
2019-05-23T04:33:01.204Z,12592.00
2019-05-23T04:34:01.176Z,12620.00
2019-05-23T04:35:01.125Z,12544.00
2019-05-23T04:36:01.090Z,12448.00
2019-05-23T04:37:01.039Z,14508.00
2019-05-23T04:38:01.007Z,16032.00
2019-05-23T04:39:00.963Z,16480.00
2019-05-23T04:40:00.918Z,15712.00
2019-05-23T04:41:00.882Z,15424.00
2019-05-23T04:42:00.898Z,14848.00
2019-05-23T04:43:00.807Z,16000.00
2019-05-23T04:44:00.775Z,15532.00
2019-05-23T04:45:00.743Z,13316.00
2019-05-23T04:46:00.692Z,12956.00
2019-05-23T04:47:00.664Z,14612.00
2019-05-23T04:48:00.617Z,14964.00
2019-05-23T04:49:00.576Z,13488.00
2019-05-23T04:50:00.557Z,12960.00
2019-05-23T04:51:00.758Z,14836.00
2019-05-23T04:52:00.598Z,17472.00
2019-05-23T04:53:00.484Z,18080.00
2019-05-23T04:54:00.441Z,19232.00
2019-05-23T04:55:00.405Z,20832.00
2019-05-23T04:56:00.317Z,22464.00
2019-05-23T04:57:00.275Z,23232.00
2019-05-23T04:58:03.887Z,23360.00
2019-05-23T04:59:00.242Z,23488.00
2019-05-23T05:00:00.176Z,22304.00
2019-05-23T05:01:00.135Z,22208.00
2019-05-23T05:02:00.101Z,24640.00
2019-05-23T05:03:00.062Z,25248.00
2019-05-23T05:04:00.031Z,24544.00
2019-05-23T05:05:00.008Z,24352.00
2019-05-23T05:05:59.957Z,25344.00
2019-05-23T05:06:59.924Z,27200.00
2019-05-23T05:07:59.886Z,29792.00
2019-05-23T05:08:59.848Z,31680.00
2019-05-23T05:09:59.821Z,33888.00
2019-05-23T05:10:59.787Z,34624.00
2019-05-23T05:11:59.744Z,35200.00
2019-05-23T05:12:59.706Z,34624.00
2019-05-23T05:13:59.671Z,33184.00
2019-05-23T05:14:59.643Z,33696.00
2019-05-23T05:15:59.625Z,35968.00
2019-05-23T05:16:59.582Z,39232.00
2019-05-23T05:17:59.541Z,38464.00
2019-05-23T05:18:59.510Z,38144.00
2019-05-23T05:19:59.474Z,37440.00
2019-05-23T05:20:59.447Z,37056.00
2019-05-23T05:21:59.415Z,35904.00
2019-05-23T05:22:59.392Z,34496.00
2019-05-23T05:23:59.430Z,31744.00
2019-05-23T05:24:59.326Z,25984.00
2019-05-23T05:25:59.301Z,19552.00
2019-05-23T05:26:59.249Z,18064.00
2019-05-23T05:27:59.242Z,19872.00
2019-05-23T05:28:59.207Z,21056.00
2019-05-23T05:29:59.182Z,19744.00
2019-05-23T05:30:59.169Z,18944.00
2019-05-23T05:32:03.394Z,20160.00
2019-05-23T05:32:59.087Z,17792.00
2019-05-23T05:33:59.055Z,15476.00
2019-05-23T05:34:59.114Z,15880.00
2019-05-23T05:35:59.009Z,16112.00
2019-05-23T05:36:58.945Z,16180.00
2019-05-23T05:37:58.916Z,18304.00
2019-05-23T05:38:58.907Z,17404.00
2019-05-23T05:39:58.887Z,16348.00
2019-05-23T05:40:58.830Z,16380.00
2019-05-23T05:41:58.830Z,16500.00
2019-05-23T05:42:58.771Z,16296.00
2019-05-23T05:43:58.727Z,15600.00
2019-05-23T05:44:58.691Z,15816.00
2019-05-23T05:45:58.671Z,15696.00
2019-05-23T05:46:58.622Z,15252.00
2019-05-23T05:47:58.588Z,15592.00
2019-05-23T05:48:58.556Z,16780.00
2019-05-23T05:49:58.539Z,16852.00
2019-05-23T05:50:58.508Z,16520.00
2019-05-23T05:51:58.465Z,16956.00
2019-05-23T05:52:58.447Z,17112.00
2019-05-23T05:53:58.437Z,17856.00
2019-05-23T05:55:00.927Z,19488.00
2019-05-23T05:55:58.415Z,17548.00
2019-05-23T05:56:58.302Z,16560.00
2019-05-23T05:57:58.275Z,16600.00
2019-05-23T05:58:58.250Z,16180.00
2019-05-23T05:59:58.193Z,16036.00
2019-05-23T06:00:58.180Z,17524.00
2019-05-23T06:01:58.136Z,19392.00
2019-05-23T06:03:04.689Z,23296.00
2019-05-23T06:03:58.072Z,24320.00
2019-05-23T06:04:58.044Z,20512.00
2019-05-23T06:05:57.997Z,18152.00
2019-05-23T06:06:57.959Z,17844.00
2019-05-23T06:07:57.926Z,18456.00
2019-05-23T06:08:57.937Z,18364.00
2019-05-23T06:09:57.890Z,18160.00
2019-05-23T06:10:57.843Z,18016.00
2019-05-23T06:11:57.789Z,19408.00
2019-05-23T06:12:57.758Z,20960.00
2019-05-23T06:13:57.722Z,23392.00
2019-05-23T06:14:57.705Z,20576.00
2019-05-23T06:15:57.656Z,19584.00
2019-05-23T06:16:57.632Z,18592.00
2019-05-23T06:17:57.587Z,20512.00
2019-05-23T06:18:57.557Z,21984.00
2019-05-23T06:19:57.540Z,23904.00
2019-05-23T06:20:57.546Z,24896.00
2019-05-23T06:21:57.456Z,23136.00
2019-05-23T06:22:57.457Z,23872.00
2019-05-23T06:23:57.392Z,25184.00
2019-05-23T06:24:58.220Z,25184.00
2019-05-23T06:25:57.318Z,22080.00
2019-05-23T06:26:57.298Z,19968.00
2019-05-23T06:27:57.256Z,20288.00
2019-05-23T06:28:57.219Z,20800.00
2019-05-23T06:29:57.211Z,21792.00
2019-05-23T06:30:57.170Z,23008.00
2019-05-23T06:31:57.115Z,22240.00
2019-05-23T06:32:57.090Z,21344.00
2019-05-23T06:33:57.084Z,20512.00
2019-05-23T06:34:57.021Z,20096.00
2019-05-23T06:35:56.987Z,20352.00
2019-05-23T06:36:56.953Z,21344.00
2019-05-23T06:37:57.011Z,22016.00
2019-05-23T06:38:56.887Z,21856.00
2019-05-23T06:39:56.880Z,21536.00
2019-05-23T06:40:56.863Z,21344.00
2019-05-23T06:41:56.795Z,22464.00
2019-05-23T06:42:56.752Z,24896.00
2019-05-23T06:43:56.731Z,24608.00
2019-05-23T06:44:56.682Z,23040.00
2019-05-23T06:45:56.666Z,22752.00
2019-05-23T06:46:56.628Z,23808.00
2019-05-23T06:47:56.602Z,24928.00
2019-05-23T06:48:56.566Z,27040.00
2019-05-23T06:49:56.530Z,30592.00
2019-05-23T06:50:56.496Z,40224.00
2019-05-23T06:51:56.465Z,49984.00
2019-05-23T06:52:56.416Z,56064.00
2019-05-23T06:53:56.404Z,63040.00
2019-05-23T06:54:59.624Z,71648.00
2019-05-23T06:55:56.325Z,74784.00
2019-05-23T06:56:56.312Z,70368.00
2019-05-23T06:57:56.264Z,66080.00
2019-05-23T06:58:56.283Z,59776.00
2019-05-23T06:59:56.323Z,57184.00
2019-05-23T07:00:56.206Z,55648.00
2019-05-23T07:01:56.145Z,53920.00
2019-05-23T07:02:56.102Z,56768.00
2019-05-23T07:03:56.085Z,63808.00
2019-05-23T07:04:56.046Z,63296.00
2019-05-23T07:05:56.023Z,62784.00
2019-05-23T07:06:56.011Z,64960.00
2019-05-23T07:07:55.998Z,59872.00
2019-05-23T07:08:55.956Z,69408.00
2019-05-23T07:09:56.045Z,76064.00
2019-05-23T07:10:55.897Z,79936.00
2019-05-23T07:11:55.845Z,81440.00
2019-05-23T07:12:55.817Z,82464.00
2019-05-23T07:13:55.787Z,53952.00
2019-05-23T07:14:55.766Z,73024.00
2019-05-23T07:15:55.772Z,79040.00
2019-05-23T07:16:55.733Z,74752.00
2019-05-23T07:17:55.718Z,72672.00
2019-05-23T07:18:55.655Z,77312.00
2019-05-23T07:19:55.610Z,80352.00
2019-05-23T07:20:55.590Z,86848.00
2019-05-23T07:21:55.582Z,84384.00
2019-05-23T07:22:55.568Z,79392.00
2019-05-23T07:23:55.534Z,75264.00
2019-05-23T07:24:58.721Z,72768.00
2019-05-23T07:25:55.510Z,73760.00
2019-05-23T07:26:55.450Z,74208.00
2019-05-23T07:27:55.415Z,80768.00
2019-05-23T07:28:55.404Z,84448.00
2019-05-23T07:29:55.382Z,80128.00
2019-05-23T07:30:55.379Z,76512.00
2019-05-23T07:31:55.354Z,82880.00
2019-05-23T07:32:55.306Z,81696.00
2019-05-23T07:34:01.935Z,83168.00
2019-05-23T07:34:55.262Z,80736.00
2019-05-23T07:35:55.230Z,82048.00
2019-05-23T07:36:55.197Z,82720.00
2019-05-23T07:37:55.181Z,87328.00
2019-05-23T07:38:55.168Z,86400.00
2019-05-23T07:39:55.134Z,81824.00
2019-05-23T07:40:55.091Z,80992.00
2019-05-23T07:41:55.080Z,82656.00
2019-05-23T07:42:55.050Z,83648.00
2019-05-23T07:43:55.093Z,81184.00
2019-05-23T07:44:54.990Z,77504.00
2019-05-23T07:45:54.986Z,77472.00
2019-05-23T07:46:54.949Z,78720.00
2019-05-23T07:47:54.918Z,80096.00
2019-05-23T07:48:54.914Z,91296.00
2019-05-23T07:49:54.908Z,81984.00
2019-05-23T07:50:54.909Z,87072.00
2019-05-23T07:51:54.835Z,79072.00
2019-05-23T07:52:54.825Z,72928.00
2019-05-23T07:53:54.819Z,76544.00
2019-05-23T07:54:54.923Z,75328.00
2019-05-23T07:55:54.763Z,68608.00
2019-05-23T07:56:54.766Z,76096.00
2019-05-23T07:57:54.697Z,77344.00
2019-05-23T07:58:54.708Z,75360.00
2019-05-23T07:59:54.682Z,76416.00
2019-05-23T08:00:54.826Z,82304.00
2019-05-23T08:01:54.640Z,82624.00
2019-05-23T08:02:54.591Z,82240.00
2019-05-23T08:03:54.548Z,82720.00
2019-05-23T08:04:54.523Z,87840.00
2019-05-23T08:05:54.499Z,87424.00
2019-05-23T08:06:54.465Z,90656.00
2019-05-23T08:07:54.541Z,85120.00
2019-05-23T08:08:54.423Z,28160.00
2019-05-23T08:09:54.403Z,26144.00
2019-05-23T08:10:54.572Z,64736.00
2019-05-23T08:11:54.375Z,79072.00
2019-05-23T08:12:54.346Z,76800.00
2019-05-23T08:13:54.302Z,50400.00
2019-05-23T08:14:54.348Z,82784.00
2019-05-23T08:15:54.261Z,88224.00
2019-05-23T08:16:54.253Z,48736.00
2019-05-23T08:17:54.274Z,98080.00
2019-05-23T08:18:54.185Z,90496.00
2019-05-23T08:19:54.158Z,94816.00
2019-05-23T08:20:54.149Z,95808.00
2019-05-23T08:21:54.127Z,83648.00
2019-05-23T08:22:54.101Z,90112.00
2019-05-23T08:23:54.147Z,86240.00
2019-05-23T08:24:54.074Z,91584.00
2019-05-23T08:25:54.031Z,100704.00
2019-05-23T08:26:54.020Z,95744.00
2019-05-23T08:27:54.042Z,39040.00
2019-05-23T08:29:23.773Z,101568.00
2019-05-23T08:29:53.957Z,96448.00
2019-05-23T08:30:53.917Z,89472.00
2019-05-23T08:31:53.889Z,83840.00
2019-05-23T08:32:53.862Z,90368.00
2019-05-23T08:33:53.814Z,90976.00
2019-05-23T08:34:53.830Z,93920.00
2019-05-23T08:35:53.780Z,99520.00
2019-05-23T08:36:53.768Z,101568.00
2019-05-23T08:37:53.764Z,102624.00
2019-05-23T08:38:53.736Z,108384.00
2019-05-23T08:39:53.705Z,101664.00
2019-05-23T08:40:53.689Z,104320.00
2019-05-23T08:41:53.686Z,110720.00
2019-05-23T08:42:53.620Z,111648.00
2019-05-23T08:43:53.585Z,103296.00
2019-05-23T08:44:53.585Z,98048.00
2019-05-23T08:45:53.559Z,99072.00
2019-05-23T08:46:53.534Z,101216.00
2019-05-23T08:47:53.532Z,105568.00
2019-05-23T08:48:53.479Z,106240.00
2019-05-23T08:49:53.498Z,110528.00
2019-05-23T08:50:53.448Z,111648.00
2019-05-23T08:51:53.438Z,112224.00
2019-05-23T08:52:53.423Z,114144.00
2019-05-23T08:53:53.382Z,118208.00
2019-05-23T08:54:53.389Z,107232.00
2019-05-23T08:55:53.352Z,107680.00
2019-05-23T08:56:53.293Z,106048.00
2019-05-23T08:57:53.272Z,116832.00
2019-05-23T08:58:53.235Z,121280.00
2019-05-23T08:59:53.243Z,124192.00
2019-05-23T09:00:53.219Z,117088.00
2019-05-23T09:01:53.191Z,111712.00
2019-05-23T09:02:53.148Z,107968.00
2019-05-23T09:03:53.138Z,98336.00
2019-05-23T09:05:04.437Z,99296.00
2019-05-23T09:05:53.101Z,98656.00
2019-05-23T09:06:53.073Z,97408.00
2019-05-23T09:07:53.062Z,92800.00
2019-05-23T09:08:53.014Z,90016.00
2019-05-23T09:09:53.073Z,96192.00
2019-05-23T09:10:52.971Z,105856.00
2019-05-23T09:11:52.950Z,100352.00
2019-05-23T09:12:52.929Z,104256.00
2019-05-23T09:13:52.904Z,116896.00
2019-05-23T09:14:52.950Z,104512.00
2019-05-23T09:15:53.649Z,112992.00
2019-05-23T09:16:52.872Z,122688.00
2019-05-23T09:17:54.272Z,119968.00
2019-05-23T09:18:52.793Z,117696.00
2019-05-23T09:19:52.813Z,119104.00
2019-05-23T09:20:52.788Z,110816.00
2019-05-23T09:21:57.545Z,101472.00
2019-05-23T09:22:52.681Z,102208.00
2019-05-23T09:23:52.711Z,97536.00
2019-05-23T09:24:52.660Z,86720.00
2019-05-23T09:25:52.632Z,84384.00
2019-05-23T09:26:52.597Z,82592.00
2019-05-23T09:27:52.567Z,88416.00
2019-05-23T09:28:52.555Z,90720.00
2019-05-23T09:29:52.523Z,80896.00
2019-05-23T09:30:52.526Z,109344.00
2019-05-23T09:31:52.556Z,114272.00
2019-05-23T09:32:52.455Z,105376.00
2019-05-23T09:33:52.456Z,106112.00
2019-05-23T09:34:52.406Z,100160.00
2019-05-23T09:35:52.392Z,110080.00
2019-05-23T09:36:52.400Z,106848.00
2019-05-23T09:37:52.348Z,85280.00
2019-05-23T09:38:52.402Z,87456.00
2019-05-23T09:39:52.295Z,98752.00
2019-05-23T09:40:52.285Z,99808.00
2019-05-23T09:41:52.235Z,98560.00
2019-05-23T09:42:52.259Z,100320.00
2019-05-23T09:43:52.256Z,113664.00
2019-05-23T09:44:52.171Z,113024.00
2019-05-23T09:45:52.144Z,102912.00
2019-05-23T09:46:52.127Z,113184.00
2019-05-23T09:47:52.110Z,115552.00
2019-05-23T09:48:52.168Z,108832.00
2019-05-23T09:49:55.106Z,112576.00
2019-05-23T09:50:52.078Z,115008.00
2019-05-23T09:51:55.725Z,115840.00
2019-05-23T09:52:52.079Z,119424.00
2019-05-23T09:53:52.011Z,122464.00
2019-05-23T09:54:51.933Z,114944.00
2019-05-23T09:55:51.898Z,111232.00
2019-05-23T09:56:51.930Z,110496.00
2019-05-23T09:57:51.842Z,115680.00
2019-05-23T09:58:51.843Z,105312.00
2019-05-23T09:59:51.849Z,109536.00
2019-05-23T10:00:51.796Z,116544.00
2019-05-23T10:01:51.780Z,111872.00
2019-05-23T10:02:51.727Z,107744.00
2019-05-23T10:03:51.822Z,117216.00
2019-05-23T10:04:51.708Z,120256.00
2019-05-23T10:05:51.839Z,121536.00
2019-05-23T10:06:51.683Z,125984.00
2019-05-23T10:07:51.604Z,132416.00
2019-05-23T10:08:51.591Z,129984.00
2019-05-23T10:09:51.627Z,117472.00
2019-05-23T10:10:51.657Z,105408.00
2019-05-23T10:11:51.560Z,115328.00
2019-05-23T10:12:51.538Z,129312.00
2019-05-23T10:13:51.617Z,119328.00
2019-05-23T10:14:51.472Z,107168.00
2019-05-23T10:15:51.445Z,112736.00
2019-05-23T10:16:51.466Z,130816.00
2019-05-23T10:17:51.398Z,130656.00
2019-05-23T10:18:51.381Z,117856.00
2019-05-23T10:19:51.338Z,102400.00
2019-05-23T10:20:51.368Z,97088.00
2019-05-23T10:21:51.291Z,100288.00
2019-05-23T10:22:51.253Z,105824.00
2019-05-23T10:23:51.231Z,99520.00
2019-05-23T10:24:51.204Z,96096.00
2019-05-23T10:25:51.230Z,102976.00
2019-05-23T10:26:51.211Z,107200.00
2019-05-23T10:27:51.146Z,106560.00
2019-05-23T10:28:51.127Z,113088.00
2019-05-23T10:29:51.131Z,122272.00
2019-05-23T10:30:51.086Z,119936.00
2019-05-23T10:31:51.032Z,120128.00
2019-05-23T10:32:51.090Z,110560.00
2019-05-23T10:33:51.059Z,104960.00
2019-05-23T10:34:50.974Z,103584.00
2019-05-23T10:36:00.620Z,102304.00
2019-05-23T10:36:50.953Z,103424.00
2019-05-23T10:37:50.895Z,99936.00
2019-05-23T10:38:50.872Z,100736.00
2019-05-23T10:39:51.370Z,108288.00
2019-05-23T10:40:50.865Z,108544.00
2019-05-23T10:41:50.831Z,104512.00
2019-05-23T10:42:50.782Z,103904.00
2019-05-23T10:43:50.807Z,105024.00
2019-05-23T10:44:50.748Z,106016.00
2019-05-23T10:45:50.695Z,105728.00
2019-05-23T10:46:50.675Z,102240.00
2019-05-23T10:47:50.642Z,100832.00
2019-05-23T10:48:50.625Z,103776.00
2019-05-23T10:49:50.671Z,97568.00
2019-05-23T10:50:50.586Z,98688.00
2019-05-23T10:51:50.653Z,100352.00
2019-05-23T10:52:50.521Z,102880.00
2019-05-23T10:53:50.517Z,108128.00
2019-05-23T10:54:50.547Z,104000.00
2019-05-23T10:55:50.457Z,99840.00
2019-05-23T10:56:50.470Z,96192.00
2019-05-23T10:57:50.419Z,88544.00
2019-05-23T10:58:50.401Z,78976.00
2019-05-23T10:59:50.359Z,76832.00
2019-05-23T11:00:50.313Z,78336.00
2019-05-23T11:01:50.312Z,74624.00
2019-05-23T11:02:50.303Z,73120.00
2019-05-23T11:03:50.257Z,74144.00
2019-05-23T11:04:50.239Z,82080.00
2019-05-23T11:05:50.217Z,78336.00
2019-05-23T11:06:50.197Z,75936.00
2019-05-23T11:07:50.160Z,78720.00
2019-05-23T11:08:50.222Z,85632.00
2019-05-23T11:09:50.139Z,88640.00
2019-05-23T11:10:50.099Z,86560.00
2019-05-23T11:11:50.052Z,90144.00
2019-05-23T11:12:50.092Z,94112.00
2019-05-23T11:13:50.010Z,100768.00
2019-05-23T11:14:49.991Z,103264.00
2019-05-23T11:15:49.977Z,99392.00
2019-05-23T11:16:49.953Z,97312.00
2019-05-23T11:17:53.458Z,98784.00
2019-05-23T11:18:49.917Z,98560.00
2019-05-23T11:19:49.907Z,95104.00
2019-05-23T11:20:49.823Z,104960.00
2019-05-23T11:21:49.814Z,111168.00
2019-05-23T11:22:49.781Z,110752.00
2019-05-23T11:23:49.776Z,117504.00
2019-05-23T11:24:49.761Z,121664.00
2019-05-23T11:25:49.720Z,122848.00
2019-05-23T11:26:49.683Z,122944.00
2019-05-23T11:27:49.728Z,118208.00
2019-05-23T11:28:49.658Z,101728.00
2019-05-23T11:29:49.611Z,106880.00
2019-05-23T11:30:49.589Z,107808.00
2019-05-23T11:31:49.561Z,106464.00
2019-05-23T11:32:49.566Z,109888.00
2019-05-23T11:33:49.528Z,115456.00
2019-05-23T11:34:49.514Z,125600.00
2019-05-23T11:35:49.467Z,136064.00
2019-05-23T11:36:49.458Z,134880.00
2019-05-23T11:37:49.423Z,121120.00
2019-05-23T11:38:49.382Z,114656.00
2019-05-23T11:39:50.699Z,128480.00
2019-05-23T11:40:49.370Z,120448.00
2019-05-23T11:41:49.355Z,106656.00
2019-05-23T11:42:52.525Z,99936.00
2019-05-23T11:43:49.265Z,89440.00
2019-05-23T11:44:49.256Z,64096.00
2019-05-23T11:45:49.219Z,56128.00
2019-05-23T11:46:49.206Z,54144.00
2019-05-23T11:47:49.248Z,52096.00
2019-05-23T11:48:49.198Z,49760.00
2019-05-23T11:49:49.142Z,50176.00
2019-05-23T11:50:49.160Z,49984.00
2019-05-23T11:51:49.140Z,49792.00
2019-05-23T11:52:49.099Z,51776.00
2019-05-23T11:54:05.958Z,51936.00
2019-05-23T11:54:49.184Z,51776.00
2019-05-23T11:55:54.031Z,53248.00
2019-05-23T11:56:49.542Z,54048.00
2019-05-23T11:57:49.030Z,54368.00
2019-05-23T11:58:49.024Z,57120.00
2019-05-23T11:59:49.888Z,58912.00
2019-05-23T12:00:48.923Z,58496.00
2019-05-23T12:01:48.956Z,59552.00
2019-05-23T12:02:48.839Z,59424.00
2019-05-23T12:03:48.800Z,59328.00